Time;durP1;ratioP1;P1;durP2;ratioP2;P2;SDS_P1;SDS_P2;PMS_P1;PMS_P2;Temp;Humidity;BMP_temperature;BMP_pressure;BME280_temperature;BME280_humidity;BME280_pressure;Samples;Min_cycle;Max_cycle;Signal;HPM_P1;HPM_P2
2022/10/17 00:01:21;;;;;;;32.67;19.65;;;;;;;12.93;86.77;101187.06;1691392;83;25492;-74
2022/10/17 00:03:47;;;;;;;30.25;18.67;;;;;;;12.91;86.99;101194.70;1684939;83;27467;-74
2022/10/17 00:06:15;;;;;;;29.70;19.15;;;;;;;12.88;87.11;101202.89;1684866;81;25682;-74
2022/10/17 00:08:43;;;;;;;30.32;18.80;;;;;;;12.84;87.01;101206.77;1685564;83;25577;-73
2022/10/17 00:11:17;;;;;;;30.68;18.23;;;;;;;12.81;87.42;101208.72;1708580;81;25527;-73
2022/10/17 00:13:46;;;;;;;30.60;18.10;;;;;;;12.78;87.34;101205.81;1739246;81;25417;-74
2022/10/17 00:16:13;;;;;;;29.35;18.50;;;;;;;12.73;87.46;101209.42;1745176;82;27455;-73
2022/10/17 00:18:40;;;;;;;27.45;18.35;;;;;;;12.68;87.53;101215.77;1732964;82;25598;-73
2022/10/17 00:21:16;;;;;;;27.55;19.00;;;;;;;12.64;87.88;101222.88;1728230;82;25610;-74
2022/10/17 00:23:43;;;;;;;28.17;18.50;;;;;;;12.59;87.90;101217.55;1704179;82;25576;-72
2022/10/17 00:26:10;;;;;;;29.00;18.75;;;;;;;12.54;88.15;101219.00;1737789;81;25601;-72
2022/10/17 00:28:36;;;;;;;29.75;20.10;;;;;;;12.51;88.64;101216.35;1716298;82;27545;-72
2022/10/17 00:31:06;;;;;;;30.55;19.95;;;;;;;12.46;88.73;101220.52;1702909;82;25824;-72
2022/10/17 00:33:34;;;;;;;33.23;21.33;;;;;;;12.47;89.24;101209.10;1703056;82;25568;-72
2022/10/17 00:36:12;;;;;;;37.50;20.72;;;;;;;12.45;89.56;101203.97;1703012;82;25483;-71
2022/10/17 00:38:41;;;;;;;30.15;20.40;;;;;;;12.42;89.51;101196.98;1759886;80;25485;-72
2022/10/17 00:41:10;;;;;;;32.97;19.37;;;;;;;12.40;89.36;101197.28;1793913;79;27474;-72
2022/10/17 00:44:02;;;;;;;32.58;20.72;;;;;;;12.39;88.98;101198.94;1810778;78;25581;-72
2022/10/17 00:46:36;;;;;;;37.25;20.35;;;;;;;12.34;89.20;101197.11;1744975;80;25433;-72
2022/10/17 00:49:11;;;;;;;29.90;19.23;;;;;;;12.30;88.94;101198.81;1763300;81;25550;-72
2022/10/17 00:51:45;;;;;;;31.37;20.17;;;;;;;12.28;89.10;101209.97;1764942;79;25644;-73
2022/10/17 00:54:15;;;;;;;35.52;20.17;;;;;;;12.26;89.26;101211.35;1764913;80;27522;-73
2022/10/17 00:56:44;;;;;;;37.60;21.00;;;;;;;12.23;89.19;101207.34;1734990;81;25660;-72
2022/10/17 00:59:13;;;;;;;32.42;19.45;;;;;;;12.21;89.26;101214.97;1734539;80;25431;-72
2022/10/17 01:01:43;;;;;;;34.23;18.10;;;;;;;12.21;89.09;101222.28;1819196;78;26433;-72
2022/10/17 01:04:09;;;;;;;27.40;18.02;;;;;;;12.17;88.48;101218.02;1776886;79;25561;-72
2022/10/17 01:06:35;;;;;;;25.25;16.00;;;;;;;12.13;88.15;101214.30;1741289;79;27462;-73
2022/10/17 01:09:02;;;;;;;33.90;20.23;;;;;;;12.09;88.09;101220.06;1779725;79;25600;-73
2022/10/17 01:11:45;;;;;;;29.80;18.15;;;;;;;12.04;87.97;101215.52;1764224;79;25416;-73
2022/10/17 01:14:26;;;;;;;26.68;18.40;;;;;;;12.01;87.90;101218.03;1778936;79;25601;-74
2022/10/17 01:17:01;;;;;;;30.60;17.57;;;;;;;11.95;87.88;101220.82;1755570;81;25606;-72
2022/10/17 01:19:54;;;;;;;29.30;17.30;;;;;;;11.91;87.58;101222.49;1762577;80;27602;-72
2022/10/17 01:22:40;;;;;;;28.05;17.12;;;;;;;11.86;87.30;101219.03;1746767;80;25599;-73
2022/10/17 01:25:41;;;;;;;25.30;16.25;;;;;;;11.82;87.27;101223.45;1770006;79;25603;-73
2022/10/17 01:28:28;;;;;;;23.95;15.75;;;;;;;11.77;87.02;101221.61;1764886;79;25791;-73
2022/10/17 01:31:02;;;;;;;27.65;16.25;;;;;;;11.71;87.43;101224.95;1703540;84;25436;-73
2022/10/17 01:33:50;;;;;;;34.15;18.52;;;;;;;11.68;87.42;101222.00;1720216;82;27552;-73
2022/10/17 01:36:31;;;;;;;33.23;18.92;;;;;;;11.65;87.99;101215.83;1667367;84;25471;-73
2022/10/17 01:39:11;;;;;;;29.75;18.73;;;;;;;11.62;88.23;101223.98;1623859;87;25913;-73
2022/10/17 01:41:43;;;;;;;31.55;18.75;;;;;;;11.63;88.87;101220.19;1580746;90;25746;-73
2022/10/17 01:44:14;;;;;;;35.52;19.90;;;;;;;11.62;89.43;101219.13;1580796;90;25707;-74
2022/10/17 01:46:57;;;;;;;32.93;19.87;;;;;;;11.62;89.30;101217.77;1557902;90;27615;-73
2022/10/17 01:49:27;;;;;;;41.08;19.60;;;;;;;11.58;89.48;101212.93;1580685;90;27151;-72
2022/10/17 01:52:02;;;;;;;35.00;19.48;;;;;;;11.59;89.80;101216.44;1580782;90;25679;-73
2022/10/17 01:54:33;;;;;;;37.35;21.07;;;;;;;11.58;90.51;101216.20;1580719;90;25864;-73
2022/10/17 01:57:03;;;;;;;36.50;22.40;;;;;;;11.59;90.47;101218.62;1594772;89;25473;-72
2022/10/17 01:59:38;;;;;;;35.30;23.55;;;;;;;11.63;90.94;101223.43;1586682;89;28069;-74
2022/10/17 02:02:06;;;;;;;42.30;25.92;;;;;;;11.67;91.29;101227.19;1596914;89;25815;-74
2022/10/17 02:04:34;;;;;;;37.83;23.62;;;;;;;11.68;91.33;101210.63;1610823;89;25694;-74
2022/10/17 02:07:10;;;;;;;32.78;21.87;;;;;;;11.70;90.96;101207.07;1641346;86;25559;-74
2022/10/17 02:09:37;;;;;;;32.03;22.05;;;;;;;11.71;90.09;101214.64;1643883;86;25805;-74
2022/10/17 02:12:46;;;;;;;29.98;20.72;;;;;;;11.70;89.55;101215.77;1653514;84;27524;-71
2022/10/17 02:15:30;;;;;;;37.63;22.22;;;;;;;11.68;89.28;101217.94;1623998;84;25665;-72
2022/10/17 02:18:07;;;;;;;34.53;23.75;;;;;;;11.64;89.73;101218.28;1743304;81;25375;-73
2022/10/17 02:20:51;;;;;;;32.15;19.65;;;;;;;11.67;90.34;101227.19;1737196;82;25487;-72
2022/10/17 02:23:32;;;;;;;36.05;19.25;;;;;;;11.66;90.16;101225.00;1717091;82;25442;-73
2022/10/17 02:26:09;;;;;;;31.00;18.62;;;;;;;11.63;89.45;101221.55;1729031;82;28052;-74
2022/10/17 02:28:50;;;;;;;33.75;19.15;;;;;;;11.60;88.98;101219.41;1732182;82;25646;-73
2022/10/17 02:31:38;;;;;;;34.23;19.42;;;;;;;11.56;88.77;101216.48;1738953;81;25623;-73
2022/10/17 02:34:19;;;;;;;30.02;18.62;;;;;;;11.53;88.65;101219.78;1728167;81;25610;-72
2022/10/17 02:36:50;;;;;;;30.95;18.90;;;;;;;11.50;88.51;101216.30;1699926;83;25555;-73
2022/10/17 02:39:19;;;;;;;32.53;18.87;;;;;;;11.46;88.61;101222.58;1768329;80;29408;-73
2022/10/17 02:41:47;;;;;;;33.20;19.95;;;;;;;11.43;88.88;101229.41;1768224;80;25614;-72
2022/10/17 02:44:15;;;;;;;32.70;18.40;;;;;;;11.40;89.12;101232.12;1756178;81;25389;-72
2022/10/17 02:46:44;;;;;;;29.32;19.10;;;;;;;11.39;89.13;101241.38;1734680;81;25581;-72
2022/10/17 02:49:17;;;;;;;32.17;18.50;;;;;;;11.35;88.77;101241.68;1756495;81;25564;-72
2022/10/17 02:51:55;;;;;;;27.48;18.85;;;;;;;11.35;88.48;101251.72;1747071;81;28146;-72
2022/10/17 02:54:48;;;;;;;34.67;19.87;;;;;;;11.33;88.50;101254.71;1756165;80;25643;-72
2022/10/17 02:57:19;;;;;;;33.15;19.17;;;;;;;11.31;88.58;101258.27;1707321;82;25663;-73
2022/10/17 02:59:48;;;;;;;33.83;18.95;;;;;;;11.27;88.95;101265.37;1738813;81;26143;-73
2022/10/17 03:02:14;;;;;;;35.33;20.40;;;;;;;11.24;89.25;101266.47;1765632;81;25529;-73
2022/10/17 03:04:45;;;;;;;33.85;19.82;;;;;;;11.22;90.25;101265.44;1763515;80;27510;-73
2022/10/17 03:07:12;;;;;;;36.83;22.20;;;;;;;11.23;90.86;101270.29;1744652;81;25401;-73
2022/10/17 03:09:38;;;;;;;37.15;21.07;;;;;;;11.23;91.72;101274.36;1752379;81;25447;-72
2022/10/17 03:12:05;;;;;;;38.78;23.65;;;;;;;11.25;91.93;101277.57;1781259;80;26084;-72
2022/10/17 03:14:31;;;;;;;42.10;22.67;;;;;;;11.27;92.16;101276.73;1761887;80;25590;-72
2022/10/17 03:16:57;;;;;;;37.88;22.17;;;;;;;11.27;92.05;101280.27;1761787;80;27506;-72
2022/10/17 03:19:24;;;;;;;41.08;22.82;;;;;;;11.26;92.11;101280.55;1749450;80;25765;-73
2022/10/17 03:21:50;;;;;;;43.80;25.15;;;;;;;11.27;92.29;101288.39;1783907;80;25598;-73
2022/10/17 03:24:16;;;;;;;40.00;24.52;;;;;;;11.28;92.32;101295.96;1793101;80;26157;-73
2022/10/17 03:26:42;;;;;;;41.90;25.48;;;;;;;11.30;92.43;101289.14;1819154;78;25540;-73
2022/10/17 03:29:08;;;;;;;45.00;25.80;;;;;;;11.29;92.57;101286.72;1764086;80;27529;-73
2022/10/17 03:31:35;;;;;;;44.30;25.62;;;;;;;11.30;92.72;101291.85;1777042;80;25749;-73
2022/10/17 03:34:02;;;;;;;41.98;25.70;;;;;;;11.31;92.73;101284.55;1767426;80;25573;-73
2022/10/17 03:36:28;;;;;;;38.20;24.23;;;;;;;11.31;92.84;101286.70;1761800;80;25647;-72
2022/10/17 03:38:55;;;;;;;40.35;24.82;;;;;;;11.31;92.78;101297.53;1755702;80;25462;-73
2022/10/17 03:41:21;;;;;;;45.95;25.20;;;;;;;11.32;92.81;101305.94;1742834;81;27313;-73
2022/10/17 03:43:47;;;;;;;44.60;24.90;;;;;;;11.34;93.14;101314.57;1745392;80;25523;-73
2022/10/17 03:46:13;;;;;;;36.90;23.38;;;;;;;11.36;92.96;101315.64;1815240;78;25575;-73
2022/10/17 03:48:39;;;;;;;37.48;22.77;;;;;;;11.36;92.89;101312.94;1787267;80;25539;-73
2022/10/17 03:51:08;;;;;;;43.30;28.38;;;;;;;11.36;92.08;101310.22;1760978;80;25469;-74
2022/10/17 03:53:35;;;;;;;46.75;24.70;;;;;;;11.33;91.69;101308.88;1737073;81;27513;-73
2022/10/17 03:56:20;;;;;;;36.80;22.62;;;;;;;11.32;91.51;101305.94;1726052;81;25760;-73
2022/10/17 03:58:48;;;;;;;38.15;22.87;;;;;;;11.30;91.38;101300.53;1742888;81;25467;-74
2022/10/17 04:01:16;;;;;;;40.58;22.95;;;;;;;11.28;91.50;101291.89;1753224;80;25558;-73
2022/10/17 04:03:44;;;;;;;37.85;21.15;;;;;;;11.30;91.97;101304.59;1756232;80;25582;-73
2022/10/17 04:06:12;;;;;;;35.35;20.48;;;;;;;11.30;92.12;101299.17;1756594;80;27446;-73
2022/10/17 04:08:39;;;;;;;38.78;22.00;;;;;;;11.29;92.26;101295.67;1768057;80;25834;-74
2022/10/17 04:11:08;;;;;;;43.70;24.57;;;;;;;11.28;92.55;101297.31;1758524;79;25637;-73
2022/10/17 04:13:35;;;;;;;38.85;24.00;;;;;;;11.30;93.23;101303.24;1768427;81;25583;-74
2022/10/17 04:16:06;;;;;;;43.85;26.87;;;;;;;11.32;93.70;101307.81;1749787;81;25621;-74
2022/10/17 04:18:33;;;;;;;44.70;26.35;;;;;;;11.34;93.99;101308.33;1708939;82;28213;-71
2022/10/17 04:21:05;;;;;;;47.33;25.27;;;;;;;11.38;94.31;101310.73;1737608;81;25407;-71
2022/10/17 04:23:32;;;;;;;44.00;26.07;;;;;;;11.41;94.38;101308.80;1765176;81;25421;-73
2022/10/17 04:25:59;;;;;;;45.28;26.25;;;;;;;11.45;94.49;101306.32;1759224;81;25533;-72
2022/10/17 04:28:27;;;;;;;47.65;28.47;;;;;;;11.48;94.61;101315.23;1733052;81;25531;-72
2022/10/17 04:31:04;;;;;;;47.67;25.85;;;;;;;11.52;94.63;101314.89;1737637;81;27535;-72
2022/10/17 04:33:33;;;;;;;42.33;24.72;;;;;;;11.54;94.49;101320.30;1773993;79;25936;-73
2022/10/17 04:36:07;;;;;;;38.50;24.07;;;;;;;11.56;94.24;101318.09;1764149;79;25542;-73
2022/10/17 04:38:34;;;;;;;44.10;27.42;;;;;;;11.57;94.11;101325.67;1751789;81;25656;-73
2022/10/17 04:41:04;;;;;;;43.75;26.17;;;;;;;11.57;94.11;101322.95;1753884;81;25645;-73
2022/10/17 04:43:33;;;;;;;41.88;25.95;;;;;;;11.58;94.28;101327.30;1731893;81;28299;-73
2022/10/17 04:46:01;;;;;;;37.67;25.35;;;;;;;11.59;94.46;101323.47;1747159;81;25615;-72
2022/10/17 04:48:29;;;;;;;42.30;27.90;;;;;;;11.57;94.36;101327.82;1753807;81;25532;-73
2022/10/17 04:51:00;;;;;;;45.63;24.87;;;;;;;11.59;94.40;101322.94;1720989;81;26020;-72
2022/10/17 04:53:29;;;;;;;43.50;25.50;;;;;;;11.62;94.13;101322.09;1728831;81;25575;-73
2022/10/17 04:55:55;;;;;;;46.45;27.93;;;;;;;11.62;94.09;101328.31;1753976;81;27504;-73
2022/10/17 04:58:22;;;;;;;47.75;28.00;;;;;;;11.63;94.52;101329.11;1753744;81;25770;-73
2022/10/17 05:00:48;;;;;;;39.13;26.23;;;;;;;11.63;94.63;101330.47;1739510;81;25597;-72
2022/10/17 05:03:15;;;;;;;48.73;28.83;;;;;;;11.64;94.88;101335.59;1737237;81;26166;-72
2022/10/17 05:05:42;;;;;;;46.80;27.58;;;;;;;11.66;94.99;101336.66;1723599;81;25467;-73
2022/10/17 05:08:10;;;;;;;45.75;26.90;;;;;;;11.69;95.09;101340.95;1728539;81;28067;-73
2022/10/17 05:10:39;;;;;;;49.03;27.87;;;;;;;11.69;94.98;101341.52;1732361;82;25737;-73
2022/10/17 05:13:06;;;;;;;51.17;27.90;;;;;;;11.71;94.99;101340.66;1727666;82;25693;-73
2022/10/17 05:15:32;;;;;;;47.27;29.18;;;;;;;11.71;95.16;101343.38;1739339;81;25532;-73
2022/10/17 05:17:58;;;;;;;50.00;30.10;;;;;;;11.74;95.26;101342.24;1751068;81;25548;-73
2022/10/17 05:20:25;;;;;;;46.08;27.60;;;;;;;11.78;95.19;101349.23;1734486;81;27542;-73
2022/10/17 05:22:51;;;;;;;50.25;30.60;;;;;;;11.80;95.19;101362.50;1742011;81;25604;-74
2022/10/17 05:25:18;;;;;;;49.25;28.50;;;;;;;11.83;95.32;101373.57;1728915;81;25615;-74
2022/10/17 05:27:45;;;;;;;49.93;26.75;;;;;;;11.87;95.42;101376.53;1739482;81;25480;-74
2022/10/17 05:30:12;;;;;;;49.10;26.57;;;;;;;11.90;95.57;101380.82;1729056;81;25422;-75
2022/10/17 05:32:38;;;;;;;46.35;26.70;;;;;;;11.94;95.58;101388.65;1732937;81;27998;-74
2022/10/17 05:35:06;;;;;;;47.27;28.65;;;;;;;12.00;95.58;101388.58;1734284;81;25404;-74
2022/10/17 05:37:32;;;;;;;41.80;25.70;;;;;;;12.02;95.48;101381.78;1742623;81;25707;-75
2022/10/17 05:39:58;;;;;;;43.60;24.90;;;;;;;12.06;95.43;101381.44;1745266;80;25741;-75
2022/10/17 05:42:25;;;;;;;39.67;25.48;;;;;;;12.10;95.19;101381.10;1779642;79;25629;-75
2022/10/17 05:44:51;;;;;;;37.25;24.50;;;;;;;12.12;94.94;101393.84;1774965;80;27465;-75
2022/10/17 05:47:17;;;;;;;40.58;26.05;;;;;;;12.12;94.60;101391.13;1736540;80;25640;-75
2022/10/17 05:49:44;;;;;;;43.83;27.32;;;;;;;12.15;94.57;101397.86;1766431;80;25793;-75
2022/10/17 05:52:10;;;;;;;42.15;31.23;;;;;;;12.19;94.67;101401.62;1761262;80;26264;-70
2022/10/17 05:54:36;;;;;;;51.90;46.35;;;;;;;12.22;94.70;101407.00;1768505;80;25639;-70
2022/10/17 05:57:02;;;;;;;44.03;26.42;;;;;;;12.21;94.37;101408.08;1769399;80;27526;-70
2022/10/17 05:59:29;;;;;;;42.13;26.60;;;;;;;12.24;94.41;101416.47;1758917;80;25708;-69
2022/10/17 06:01:55;;;;;;;46.33;28.23;;;;;;;12.25;94.68;101418.62;1758716;80;25767;-67
2022/10/17 06:04:21;;;;;;;50.20;28.85;;;;;;;12.30;95.32;101423.41;1770945;80;25581;-67
2022/10/17 06:06:47;;;;;;;48.15;28.40;;;;;;;12.37;95.18;101432.55;1782877;80;25446;-68
2022/10/17 06:09:14;;;;;;;51.25;29.18;;;;;;;12.42;95.13;101436.55;1745909;81;28144;-67
2022/10/17 06:11:40;;;;;;;41.55;26.68;;;;;;;12.46;95.14;101430.81;1745313;81;27373;-67
2022/10/17 06:14:07;;;;;;;47.23;27.52;;;;;;;12.51;94.99;101427.19;1754021;80;25430;-68
2022/10/17 06:16:33;;;;;;;47.98;27.73;;;;;;;12.54;94.68;101426.61;1763871;80;25638;-67
2022/10/17 06:19:02;;;;;;;42.03;26.75;;;;;;;12.55;94.13;101418.73;1759115;80;25598;-68
2022/10/17 06:21:35;;;;;;;43.70;26.87;;;;;;;12.53;93.62;101422.27;1763636;80;28709;-68
2022/10/17 06:23:59;;;;;;;44.42;26.75;;;;;;;12.52;93.58;101420.67;1768593;80;25409;-68
2022/10/17 06:26:26;;;;;;;43.15;26.17;;;;;;;12.51;93.50;101425.30;1779565;80;25654;-67
2022/10/17 06:28:54;;;;;;;52.17;27.35;;;;;;;12.51;93.65;101423.95;1767834;80;26062;-67
2022/10/17 06:31:20;;;;;;;47.25;27.77;;;;;;;12.57;94.19;101427.94;1783408;78;25472;-67
2022/10/17 06:34:08;;;;;;;44.25;26.55;;;;;;;12.62;94.71;101435.45;1746404;80;27477;-67
2022/10/17 06:36:34;;;;;;;45.73;28.38;;;;;;;12.76;96.34;101437.42;1603610;88;25825;-67
2022/10/17 06:39:01;;;;;;;45.20;28.17;;;;;;;12.87;95.39;101441.56;1642083;85;25600;-67
2022/10/17 06:41:27;;;;;;;57.48;28.95;;;;;;;12.95;94.93;101438.73;1638091;85;25634;-68
2022/10/17 06:43:53;;;;;;;51.77;31.23;;;;;;;13.06;95.48;101445.62;1638058;85;25850;-67
2022/10/17 06:46:20;;;;;;;47.00;30.00;;;;;;;13.18;95.19;101446.52;1639381;85;27489;-67
2022/10/17 06:48:46;;;;;;;49.50;31.20;;;;;;;13.31;95.02;101449.78;1638032;85;25843;-68
2022/10/17 06:51:12;;;;;;;51.80;32.53;;;;;;;13.50;96.71;101448.41;1608575;87;25945;-68
2022/10/17 06:53:39;;;;;;;49.05;29.82;;;;;;;13.80;99.75;101455.72;1636367;85;26092;-68
2022/10/17 06:56:09;;;;;;;51.63;29.52;;;;;;;14.05;98.10;101461.20;1639112;85;25536;-68
2022/10/17 06:58:38;;;;;;;44.48;28.67;;;;;;;14.23;96.24;101454.00;1633468;85;29786;-68
2022/10/17 07:01:08;;;;;;;44.23;28.30;;;;;;;14.34;94.22;101452.68;1654671;84;25419;-68
2022/10/17 07:03:34;;;;;;;50.23;29.40;;;;;;;14.54;95.33;101457.41;1671301;84;25603;-69
2022/10/17 07:06:00;;;;;;;42.88;27.52;;;;;;;14.73;94.98;101464.10;1676174;84;25537;-68
2022/10/17 07:08:27;;;;;;;43.00;28.00;;;;;;;14.97;94.18;101465.16;1705748;82;25457;-68
2022/10/17 07:10:54;;;;;;;41.85;25.82;;;;;;;15.16;95.15;101458.14;1705686;82;27532;-68
2022/10/17 07:13:21;;;;;;;40.17;25.32;;;;;;;15.44;93.64;101457.96;1713117;82;25764;-69
2022/10/17 07:15:47;;;;;;;40.12;25.85;;;;;;;15.57;91.36;101453.54;1717002;82;25500;-68
2022/10/17 07:18:14;;;;;;;39.65;24.05;;;;;;;15.78;91.53;101459.25;1710024;82;25929;-69
2022/10/17 07:20:41;;;;;;;38.53;25.82;;;;;;;15.99;91.83;101456.77;1720526;82;25632;-69
2022/10/17 07:23:07;;;;;;;43.68;24.63;;;;;;;16.24;91.12;101463.38;1716181;82;27474;-69
2022/10/17 07:25:34;;;;;;;41.05;25.02;;;;;;;16.49;89.71;101468.64;1710449;82;25789;-67
2022/10/17 07:28:01;;;;;;;36.55;23.55;;;;;;;16.67;88.86;101461.27;1679377;83;25622;-69
2022/10/17 07:30:27;;;;;;;39.03;24.63;;;;;;;17.03;89.30;101469.69;1679411;83;25682;-69
2022/10/17 07:32:53;;;;;;;38.60;23.47;;;;;;;17.21;86.84;101469.66;1720538;83;25294;-69
2022/10/17 07:35:20;;;;;;;34.45;23.12;;;;;;;17.35;84.76;101473.80;1721758;83;29742;-69
2022/10/17 07:37:47;;;;;;;37.50;23.18;;;;;;;17.41;84.31;101471.69;1710542;83;26008;-70
2022/10/17 07:40:13;;;;;;;32.73;21.90;;;;;;;17.62;84.87;101469.05;1711914;83;25693;-69
2022/10/17 07:42:40;;;;;;;36.00;22.32;;;;;;;17.80;83.25;101468.39;1713736;83;25682;-67
2022/10/17 07:45:08;;;;;;;32.13;22.07;;;;;;;18.00;82.57;101463.34;1687308;83;25471;-70
2022/10/17 07:47:34;;;;;;;35.03;22.73;;;;;;;18.02;79.64;101467.34;1688005;83;27597;-67
2022/10/17 07:50:04;;;;;;;34.03;21.77;;;;;;;17.99;80.50;101468.58;1702443;83;25687;-66
2022/10/17 07:52:31;;;;;;;35.83;21.50;;;;;;;18.12;80.60;101483.96;1706728;83;25627;-69
2022/10/17 07:54:57;;;;;;;35.50;21.85;;;;;;;18.20;80.04;101485.03;1689744;83;26016;-71
2022/10/17 07:57:23;;;;;;;34.13;22.22;;;;;;;18.52;80.60;101486.83;1697936;83;25607;-68
2022/10/17 07:59:50;;;;;;;32.28;21.73;;;;;;;18.78;79.20;101490.72;1709442;82;28004;-67
2022/10/17 08:02:26;;;;;;;33.08;21.45;;;;;;;19.01;79.64;101496.69;1698881;82;25761;-68
2022/10/17 08:04:53;;;;;;;30.10;20.43;;;;;;;19.24;78.54;101495.75;1695433;82;25629;-69
2022/10/17 08:07:20;;;;;;;29.37;20.32;;;;;;;19.37;76.82;101506.95;1696195;83;25603;-67
2022/10/17 08:09:47;;;;;;;30.08;21.27;;;;;;;19.66;77.11;101505.75;1721580;83;25395;-68
2022/10/17 08:12:14;;;;;;;33.63;20.08;;;;;;;19.89;76.04;101508.33;1723333;82;27471;-68
2022/10/17 08:14:41;;;;;;;33.88;21.07;;;;;;;20.04;74.87;101506.02;1720179;83;25403;-70
2022/10/17 08:17:08;;;;;;;29.70;20.97;;;;;;;20.06;73.38;101508.66;1711068;83;25576;-70
2022/10/17 08:19:40;;;;;;;31.33;20.35;;;;;;;19.95;72.22;101507.52;1721964;83;25733;-69
2022/10/17 08:22:07;;;;;;;29.98;21.12;;;;;;;19.81;71.57;101515.30;1706740;83;25706;-69
2022/10/17 08:24:34;;;;;;;31.85;19.55;;;;;;;19.71;71.51;101511.81;1713559;83;27527;-69
2022/10/17 08:27:00;;;;;;;28.62;18.82;;;;;;;19.65;71.35;101514.56;1709566;83;25457;-69
2022/10/17 08:29:26;;;;;;;30.55;19.23;;;;;;;19.53;71.02;101513.98;1707052;83;25565;-69
2022/10/17 08:31:53;;;;;;;32.28;20.02;;;;;;;19.40;70.92;101513.72;1713682;83;26078;-69
2022/10/17 08:34:20;;;;;;;30.05;19.90;;;;;;;19.34;71.05;101512.31;1673021;83;25710;-69
2022/10/17 08:36:46;;;;;;;27.15;18.52;;;;;;;19.24;70.75;101505.34;1709480;83;27564;-69
2022/10/17 08:39:14;;;;;;;27.52;19.70;;;;;;;19.26;71.76;101503.06;1712385;83;25762;-69
2022/10/17 08:41:55;;;;;;;31.23;20.37;;;;;;;19.46;71.68;101501.39;1712399;83;25725;-69
2022/10/17 08:45:09;;;;;;;28.52;18.37;;;;;;;19.73;71.94;101498.57;1695134;84;26110;-71
2022/10/17 08:47:43;;;;;;;26.65;19.95;;;;;;;20.19;71.94;101495.70;1697856;83;25595;-69
2022/10/17 08:50:23;;;;;;;31.12;19.85;;;;;;;21.07;72.37;101496.51;1691445;84;27459;-70
2022/10/17 08:53:30;;;;;;;27.05;18.77;;;;;;;21.45;70.17;101495.13;1690577;84;25803;-71
2022/10/17 08:56:00;;;;;;;29.37;18.67;;;;;;;22.01;68.66;101492.23;1692727;84;25576;-69
2022/10/17 08:58:33;;;;;;;27.25;19.23;;;;;;;22.23;65.93;101494.07;1705980;83;25664;-70
2022/10/17 09:01:23;;;;;;;29.27;18.25;;;;;;;22.51;66.19;101498.07;1685775;83;25408;-71
2022/10/17 09:04:11;;;;;;;25.43;17.65;;;;;;;22.87;65.12;101496.62;1681757;85;27527;-71
2022/10/17 09:06:58;;;;;;;28.50;19.30;;;;;;;23.24;64.93;101494.77;1715001;83;25619;-70
2022/10/17 09:09:54;;;;;;;25.77;18.60;;;;;;;23.62;64.14;101497.22;1703342;83;25652;-71
2022/10/17 09:12:40;;;;;;;27.30;18.35;;;;;;;24.10;62.20;101493.44;1716033;82;25741;-71
2022/10/17 09:15:37;;;;;;;25.37;17.25;;;;;;;24.12;60.69;101492.48;1704853;83;25275;-70
2022/10/17 09:18:23;;;;;;;23.42;17.25;;;;;;;24.29;60.00;101485.60;1693209;83;27592;-70
2022/10/17 09:21:25;;;;;;;23.87;17.42;;;;;;;24.83;60.56;101479.39;1687295;83;25395;-70
2022/10/17 09:23:56;;;;;;;24.55;18.35;;;;;;;25.55;60.09;101478.72;1704470;83;25656;-72
2022/10/17 09:26:25;;;;;;;26.10;18.55;;;;;;;26.16;58.56;101479.77;1694956;84;25702;-74
2022/10/17 09:29:00;;;;;;;22.58;17.32;;;;;;;26.33;57.20;101479.66;1701520;83;32877;-73
2022/10/17 09:31:32;;;;;;;26.55;17.73;;;;;;;26.46;55.27;101471.98;1696824;84;28126;-72
2022/10/17 09:34:01;;;;;;;22.82;17.25;;;;;;;26.45;55.12;101482.08;1691144;84;25708;-71
2022/10/17 09:36:32;;;;;;;24.02;18.25;;;;;;;26.64;55.22;101479.00;1689699;83;25362;-72
2022/10/17 09:39:06;;;;;;;24.67;17.82;;;;;;;26.93;55.39;101491.58;1676738;85;25541;-73
2022/10/17 09:41:40;;;;;;;24.10;18.50;;;;;;;27.24;54.27;101490.64;1658886;86;25620;-72
2022/10/17 09:44:32;;;;;;;27.27;18.75;;;;;;;27.09;51.67;101491.23;1656420;85;28696;-72
2022/10/17 09:47:28;;;;;;;22.77;18.30;;;;;;;26.52;50.48;101488.25;1666943;85;25767;-73
2022/10/17 09:49:54;;;;;;;24.75;18.10;;;;;;;25.96;50.77;101487.55;1652367;85;25622;-72
2022/10/17 09:52:38;;;;;;;20.95;17.37;;;;;;;25.60;51.83;101479.74;1657982;84;25635;-73
2022/10/17 09:55:27;;;;;;;23.15;17.17;;;;;;;25.46;52.06;101477.66;1673910;85;25670;-72
2022/10/17 09:57:58;;;;;;;22.85;17.32;;;;;;;25.51;53.48;101478.69;1676773;85;28058;-70
2022/10/17 10:00:35;;;;;;;24.37;16.87;;;;;;;25.87;53.20;101474.80;1677194;85;25487;-69
2022/10/17 10:03:25;;;;;;;21.57;17.48;;;;;;;25.97;52.88;101473.31;1650817;85;25717;-68
2022/10/17 10:06:16;;;;;;;25.52;20.23;;;;;;;25.97;51.96;101471.14;1673457;85;26432;-72
2022/10/17 10:08:57;;;;;;;22.07;17.23;;;;;;;25.90;51.83;101469.09;1664774;85;25757;-69
2022/10/17 10:11:56;;;;;;;22.55;17.45;;;;;;;25.83;51.38;101466.25;1652379;85;27589;-70
2022/10/17 10:14:36;;;;;;;26.55;17.65;;;;;;;25.62;51.44;101463.53;1680043;85;27373;-71
2022/10/17 10:17:07;;;;;;;23.27;16.48;;;;;;;25.49;51.07;101459.49;1654283;86;25717;-72
2022/10/17 10:19:37;;;;;;;22.70;16.50;;;;;;;25.49;51.72;101454.74;1654009;86;25667;-71
2022/10/17 10:22:19;;;;;;;24.80;17.37;;;;;;;25.72;52.67;101455.09;1670260;85;25486;-71
2022/10/17 10:25:08;;;;;;;21.60;16.05;;;;;;;26.08;51.52;101454.78;1666436;85;28176;-68
2022/10/17 10:27:38;;;;;;;22.37;16.40;;;;;;;26.24;51.89;101448.91;1653828;85;25767;-69
2022/10/17 10:30:06;;;;;;;21.80;16.77;;;;;;;26.36;50.94;101441.44;1661972;85;25765;-69
2022/10/17 10:32:36;;;;;;;21.87;16.07;;;;;;;26.48;50.31;101449.41;1667689;85;25707;-70
2022/10/17 10:35:26;;;;;;;21.37;16.37;;;;;;;26.36;49.60;101445.60;1659222;85;25704;-70
2022/10/17 10:37:56;;;;;;;19.25;15.80;;;;;;;26.25;49.17;101444.94;1696508;83;27492;-72
2022/10/17 10:40:48;;;;;;;16.95;15.00;;;;;;;26.31;48.72;101448.75;1708682;83;25646;-71
2022/10/17 10:43:35;;;;;;;20.20;14.85;;;;;;;26.36;49.93;101451.15;1672090;84;26662;-68
2022/10/17 10:46:21;;;;;;;21.02;14.35;;;;;;;26.37;49.29;101447.95;1685973;84;25811;-66
2022/10/17 10:48:58;;;;;;;18.48;14.93;;;;;;;26.43;48.23;101445.62;1660069;85;25613;-67
2022/10/17 10:51:36;;;;;;;19.60;15.15;;;;;;;26.56;49.24;101447.44;1687348;84;27554;-66
2022/10/17 10:54:14;;;;;;;22.10;15.15;;;;;;;26.98;49.58;101449.55;1684179;84;25792;-67
2022/10/17 10:56:46;;;;;;;21.57;15.35;;;;;;;27.18;48.69;101446.41;1671031;85;25767;-66
2022/10/17 10:59:44;;;;;;;23.73;15.25;;;;;;;27.38;48.09;101447.64;1668173;85;25770;-67
2022/10/17 11:02:15;;;;;;;19.60;13.62;;;;;;;27.52;46.69;101453.78;1668469;85;25766;-68
2022/10/17 11:04:59;;;;;;;21.17;15.10;;;;;;;27.28;46.57;101445.66;1674707;85;27550;-68
2022/10/17 11:07:49;;;;;;;17.62;14.50;;;;;;;27.38;47.28;101442.69;1679841;85;25691;-69
2022/10/17 11:10:36;;;;;;;19.57;14.35;;;;;;;27.56;46.69;101440.67;1653179;86;25654;-68
2022/10/17 11:13:14;;;;;;;20.20;15.85;;;;;;;27.58;46.73;101443.86;1649763;85;25510;-69
2022/10/17 11:15:54;;;;;;;18.80;14.50;;;;;;;27.64;45.58;101447.63;1650008;85;25622;-69
2022/10/17 11:18:34;;;;;;;17.90;14.95;;;;;;;27.30;45.32;101443.87;1648789;84;27491;-68
2022/10/17 11:21:39;;;;;;;17.90;14.18;;;;;;;27.17;45.56;101440.65;1671259;84;25710;-69
2022/10/17 11:24:26;;;;;;;24.45;14.33;;;;;;;27.17;45.16;101446.20;1673794;84;25688;-68
2022/10/17 11:27:00;;;;;;;17.10;14.35;;;;;;;26.83;45.24;101439.04;1681727;84;25560;-69
2022/10/17 11:29:33;;;;;;;21.37;14.68;;;;;;;26.72;45.24;101442.97;1664495;85;25790;-68
2022/10/17 11:32:07;;;;;;;20.08;14.03;;;;;;;26.49;44.95;101441.87;1678951;85;27498;-70
2022/10/17 11:34:42;;;;;;;19.17;14.47;;;;;;;26.12;45.35;101441.50;1673496;84;25458;-72